Time;durP1;ratioP1;P1;durP2;ratioP2;P2;SDS_P1;SDS_P2;PMS_P1;PMS_P2;Temp;Humidity;BMP_temperature;BMP_pressure;BME280_temperature;BME280_humidity;BME280_pressure;Samples;Min_cycle;Max_cycle;Signal;HPM_P1;HPM_P2
2022/03/02 00:00:14;;;;;;;19.92;14.18;;;5.30;99.90;;;;;;4860159;29;20052;-77
2022/03/02 00:02:42;;;;;;;19.25;13.05;;;5.30;99.90;;;;;;4860687;29;20052;-77
2022/03/02 00:05:11;;;;;;;16.95;11.40;;;5.30;99.90;;;;;;4846447;29;20112;-77
2022/03/02 00:07:37;;;;;;;13.40;10.07;;;5.30;99.90;;;;;;4861814;29;20102;-77
2022/03/02 00:10:04;;;;;;;12.95;9.20;;;5.30;99.90;;;;;;4859231;29;20103;-77
2022/03/02 00:12:30;;;;;;;12.65;8.30;;;5.30;99.90;;;;;;4862010;29;20045;-77
2022/03/02 00:14:56;;;;;;;11.27;7.38;;;5.30;99.90;;;;;;4862806;29;20068;-77
2022/03/02 00:17:22;;;;;;;13.82;9.43;;;5.30;99.90;;;;;;4847598;29;20135;-78
2022/03/02 00:19:48;;;;;;;16.38;10.85;;;5.30;99.90;;;;;;4861189;29;20176;-78
2022/03/02 00:22:14;;;;;;;16.88;11.40;;;5.30;99.90;;;;;;4875960;29;20048;-78
2022/03/02 00:24:40;;;;;;;21.30;14.50;;;5.30;99.90;;;;;;4861766;29;20045;-77
2022/03/02 00:27:06;;;;;;;22.92;14.88;;;5.30;99.90;;;;;;4861916;29;20036;-78
2022/03/02 00:29:31;;;;;;;21.63;15.10;;;5.30;99.90;;;;;;4861094;29;20121;-77
2022/03/02 00:31:57;;;;;;;23.38;15.93;;;5.30;99.90;;;;;;4859508;29;20068;-77
2022/03/02 00:34:23;;;;;;;20.08;13.63;;;5.30;99.90;;;;;;4861297;29;20049;-78
2022/03/02 00:36:48;;;;;;;19.17;13.52;;;5.30;99.90;;;;;;4861343;29;20439;-78
2022/03/02 00:39:14;;;;;;;20.00;13.85;;;5.30;99.90;;;;;;4845343;29;20045;-78
2022/03/02 00:41:40;;;;;;;24.85;16.10;;;5.30;99.90;;;;;;4857438;29;20465;-76
2022/03/02 00:44:06;;;;;;;20.25;14.25;;;5.30;99.90;;;;;;4861435;29;20076;-76
2022/03/02 00:46:31;;;;;;;26.23;15.77;;;5.20;99.90;;;;;;4859280;29;20468;-76
2022/03/02 00:48:59;;;;;;;21.45;14.60;;;5.20;99.90;;;;;;4844792;29;20108;-76
2022/03/02 00:51:25;;;;;;;19.40;13.23;;;5.20;99.90;;;;;;4835507;29;20052;-75
2022/03/02 00:53:52;;;;;;;17.95;12.48;;;5.20;99.90;;;;;;4877276;29;20128;-76
2022/03/02 00:56:19;;;;;;;29.05;20.20;;;5.20;99.90;;;;;;4859695;29;20048;-75
2022/03/02 00:58:45;;;;;;;;;;;5.20;99.90;;;;;;4841868;29;20049;-75
2022/03/02 01:01:10;;;;;;;29.63;18.10;;;5.20;99.90;;;;;;4856784;29;19931;-75
2022/03/02 01:03:36;;;;;;;23.75;16.27;;;5.20;99.90;;;;;;4844874;29;20116;-76
2022/03/02 01:06:03;;;;;;;23.30;15.52;;;5.20;99.90;;;;;;4856963;29;20117;-76
2022/03/02 01:08:29;;;;;;;30.98;20.23;;;5.20;99.90;;;;;;4873972;29;20064;-76
2022/03/02 01:10:55;;;;;;;27.10;18.08;;;5.10;99.90;;;;;;4857546;29;20113;-76
2022/03/02 01:13:21;;;;;;;34.95;23.65;;;5.10;99.90;;;;;;4858148;29;20056;-76
2022/03/02 01:15:46;;;;;;;34.13;22.42;;;5.10;99.90;;;;;;4844683;29;20417;-76
2022/03/02 01:18:12;;;;;;;35.85;22.85;;;5.20;99.90;;;;;;4859561;29;20037;-76
2022/03/02 01:20:38;;;;;;;36.05;21.80;;;5.10;99.90;;;;;;4858461;29;20136;-76
2022/03/02 01:23:04;;;;;;;30.58;20.60;;;5.10;99.90;;;;;;4857202;29;20037;-76
2022/03/02 01:25:29;;;;;;;27.67;17.98;;;5.10;99.90;;;;;;4860091;29;20112;-76
2022/03/02 01:27:55;;;;;;;32.63;22.10;;;5.00;99.90;;;;;;4858927;29;20037;-76
2022/03/02 01:30:21;;;;;;;32.95;21.17;;;5.00;99.90;;;;;;4865713;29;20067;-78
2022/03/02 01:32:47;;;;;;;;;;;5.00;99.90;;;;;;4875588;29;20049;-78
2022/03/02 01:35:13;;;;;;;29.05;18.55;;;5.00;99.90;;;;;;4858515;29;19931;-78
2022/03/02 01:37:39;;;;;;;34.67;20.98;;;5.00;99.90;;;;;;4857448;29;20045;-78
2022/03/02 01:40:09;;;;;;;26.95;17.75;;;5.00;99.90;;;;;;4860510;29;20401;-78
2022/03/02 01:42:40;;;;;;;24.50;17.08;;;4.90;99.90;;;;;;4862844;29;20049;-78
2022/03/02 01:45:08;;;;;;;24.52;17.17;;;4.90;99.90;;;;;;4860366;29;20045;-78
2022/03/02 01:47:34;;;;;;;28.85;20.00;;;4.90;99.90;;;;;;4873034;29;20087;-78
2022/03/02 01:50:00;;;;;;;28.50;17.63;;;4.90;99.90;;;;;;4857423;29;20122;-78
2022/03/02 01:52:26;;;;;;;23.38;15.48;;;4.90;99.90;;;;;;4865252;29;20049;-78
2022/03/02 01:54:52;;;;;;;28.98;17.88;;;4.80;99.90;;;;;;4871195;29;20052;-78
2022/03/02 01:57:18;;;;;;;25.65;17.02;;;4.80;99.90;;;;;;4875192;29;20120;-78
2022/03/02 01:59:44;;;;;;;27.48;17.83;;;4.80;99.90;;;;;;4860514;29;20196;-77
2022/03/02 02:02:11;;;;;;;32.42;21.02;;;4.80;99.90;;;;;;4859990;29;20037;-77
2022/03/02 02:04:36;;;;;;;;;;;4.80;99.90;;;;;;4859931;29;20087;-77
2022/03/02 02:07:02;;;;;;;25.10;16.33;;;4.70;99.90;;;;;;4871696;29;20273;-77
2022/03/02 02:09:28;;;;;;;38.72;23.13;;;4.70;99.90;;;;;;4873024;29;20052;-77
2022/03/02 02:11:54;;;;;;;45.67;24.58;;;4.70;99.90;;;;;;4843975;29;20059;-77
2022/03/02 02:14:20;;;;;;;35.47;22.27;;;4.70;99.90;;;;;;4854864;29;20097;-77
2022/03/02 02:16:46;;;;;;;37.40;23.77;;;4.60;99.90;;;;;;4871210;29;20093;-77
2022/03/02 02:19:12;;;;;;;37.15;24.10;;;4.60;99.90;;;;;;4870753;29;20072;-77
2022/03/02 02:21:37;;;;;;;36.92;23.50;;;4.60;99.90;;;;;;4859153;29;20599;-76
2022/03/02 02:24:03;;;;;;;39.85;25.25;;;4.60;99.90;;;;;;4874538;29;20049;-77
2022/03/02 02:26:29;;;;;;;36.97;24.60;;;4.60;99.90;;;;;;4847698;29;20056;-77
2022/03/02 02:28:55;;;;;;;42.30;26.65;;;4.60;99.90;;;;;;4844779;29;20049;-77
2022/03/02 02:31:25;;;;;;;41.22;25.42;;;4.60;99.90;;;;;;4874068;29;20085;-77
2022/03/02 02:33:51;;;;;;;40.75;25.60;;;4.60;99.90;;;;;;4844697;29;20048;-77
2022/03/02 02:36:18;;;;;;;;;;;4.50;99.90;;;;;;4859763;29;20048;-77
2022/03/02 02:38:44;;;;;;;37.90;24.88;;;4.50;99.90;;;;;;4874751;29;19924;-78
2022/03/02 02:41:10;;;;;;;43.70;26.95;;;4.50;99.90;;;;;;4875460;29;20045;-78
2022/03/02 02:43:37;;;;;;;46.83;28.67;;;4.50;99.90;;;;;;4877424;29;20053;-78
2022/03/02 02:46:03;;;;;;;41.85;25.88;;;4.50;99.90;;;;;;4859545;29;20037;-78
2022/03/02 02:48:29;;;;;;;44.60;27.17;;;4.40;99.90;;;;;;4859087;29;20524;-76
2022/03/02 02:50:55;;;;;;;43.25;27.10;;;4.30;99.90;;;;;;4859929;29;20055;-77
2022/03/02 02:53:20;;;;;;;39.05;24.70;;;4.20;99.90;;;;;;4873907;29;20116;-77
2022/03/02 02:55:47;;;;;;;41.75;26.65;;;4.10;99.90;;;;;;4871820;29;20045;-78
2022/03/02 02:58:14;;;;;;;41.35;25.52;;;4.00;99.90;;;;;;4858278;29;20043;-77
2022/03/02 03:00:44;;;;;;;44.70;27.52;;;4.00;99.90;;;;;;4872749;29;20192;-77
2022/03/02 03:03:10;;;;;;;37.75;23.25;;;4.00;99.90;;;;;;4855336;29;20045;-77
2022/03/02 03:05:36;;;;;;;36.05;23.30;;;3.90;99.90;;;;;;4857329;29;20049;-77
2022/03/02 03:08:05;;;;;;;42.60;27.13;;;3.80;99.90;;;;;;4873173;29;20485;-77
2022/03/02 03:10:31;;;;;;;39.67;23.80;;;3.80;99.90;;;;;;4874395;29;20171;-77
2022/03/02 03:12:57;;;;;;;37.83;22.52;;;3.80;99.90;;;;;;4856177;29;20509;-78
2022/03/02 03:15:23;;;;;;;44.13;27.83;;;3.70;99.90;;;;;;4874489;29;20037;-77
2022/03/02 03:17:50;;;;;;;46.35;27.35;;;3.70;99.90;;;;;;4858681;29;20037;-78
2022/03/02 03:20:19;;;;;;;46.00;28.17;;;3.70;99.90;;;;;;4873972;29;20053;-78
2022/03/02 03:22:45;;;;;;;45.00;27.63;;;3.70;99.90;;;;;;4870525;29;20045;-77
2022/03/02 03:25:12;;;;;;;52.15;30.30;;;3.70;99.90;;;;;;4857995;29;20155;-78
2022/03/02 03:27:39;;;;;;;43.88;26.63;;;3.80;99.90;;;;;;4873360;29;20105;-75
2022/03/02 03:30:07;;;;;;;40.13;24.75;;;3.70;99.90;;;;;;4873940;29;20065;-77
2022/03/02 03:32:33;;;;;;;44.47;27.90;;;3.60;99.90;;;;;;4866993;29;20068;-78
2022/03/02 03:34:59;;;;;;;46.70;26.93;;;3.60;99.90;;;;;;4874589;29;20707;-78
2022/03/02 03:37:26;;;;;;;44.58;26.63;;;3.60;99.90;;;;;;4866037;29;20289;-77
2022/03/02 03:39:51;;;;;;;;;;;3.60;99.90;;;;;;4874102;29;20434;-78
2022/03/02 03:42:17;;;;;;;37.40;23.45;;;3.50;99.90;;;;;;4872545;29;19920;-77
2022/03/02 03:44:46;;;;;;;43.22;25.95;;;3.50;99.90;;;;;;4876360;29;20041;-77
2022/03/02 03:47:12;;;;;;;40.28;24.85;;;3.40;99.90;;;;;;4871543;29;20038;-77
2022/03/02 03:49:38;;;;;;;49.08;28.50;;;3.40;99.90;;;;;;4873405;29;20060;-77
2022/03/02 03:52:04;;;;;;;47.40;27.55;;;3.40;99.90;;;;;;4857869;29;20045;-77
2022/03/02 03:54:29;;;;;;;41.00;25.23;;;3.40;99.90;;;;;;4858100;29;20076;-76
2022/03/02 03:56:55;;;;;;;42.15;25.23;;;3.30;99.90;;;;;;4857806;29;20092;-77
2022/03/02 03:59:21;;;;;;;34.95;22.38;;;3.20;99.90;;;;;;4874858;29;20133;-77
2022/03/02 04:01:46;;;;;;;45.25;26.45;;;3.20;99.90;;;;;;4862455;29;20116;-77
2022/03/02 04:04:12;;;;;;;43.38;26.83;;;3.10;99.90;;;;;;4877648;29;20033;-77
2022/03/02 04:06:38;;;;;;;42.97;25.83;;;3.10;99.90;;;;;;4858412;29;20037;-77
2022/03/02 04:09:04;;;;;;;44.63;28.00;;;3.10;99.90;;;;;;4873847;29;20471;-77
2022/03/02 04:11:30;;;;;;;45.25;27.58;;;3.10;99.90;;;;;;4875071;29;20048;-75
2022/03/02 04:13:56;;;;;;;41.22;25.58;;;3.10;99.90;;;;;;4863607;29;20441;-75
2022/03/02 04:16:21;;;;;;;41.08;25.23;;;3.10;99.90;;;;;;4857464;29;20163;-76
2022/03/02 04:18:47;;;;;;;34.92;21.40;;;3.10;99.90;;;;;;4870147;29;20045;-76
2022/03/02 04:21:13;;;;;;;35.10;22.85;;;2.90;99.90;;;;;;4872418;29;20045;-75
2022/03/02 04:23:39;;;;;;;37.40;23.27;;;2.90;99.90;;;;;;4875800;29;20147;-76
2022/03/02 04:26:04;;;;;;;34.88;21.85;;;2.90;99.90;;;;;;4864566;29;20041;-75
2022/03/02 04:28:30;;;;;;;40.22;24.73;;;2.90;99.90;;;;;;4859926;29;20140;-75
2022/03/02 04:30:57;;;;;;;36.50;24.00;;;2.90;99.90;;;;;;4855462;29;20116;-76
2022/03/02 04:33:23;;;;;;;42.78;25.75;;;2.80;99.90;;;;;;4872414;29;20121;-75
2022/03/02 04:35:48;;;;;;;37.03;23.35;;;2.80;99.90;;;;;;4876288;29;20143;-75
2022/03/02 04:38:15;;;;;;;38.60;24.38;;;2.80;99.90;;;;;;4858056;29;20093;-75
2022/03/02 04:40:40;;;;;;;;;;;2.70;99.90;;;;;;4875570;29;20087;-76
2022/03/02 04:43:06;;;;;;;31.90;19.63;;;2.60;99.90;;;;;;4875658;29;19967;-76
2022/03/02 04:45:32;;;;;;;30.17;18.52;;;2.60;99.90;;;;;;4839407;29;20040;-76
2022/03/02 04:47:58;;;;;;;28.83;18.60;;;2.60;99.90;;;;;;4876812;29;20041;-76
2022/03/02 04:50:26;;;;;;;34.80;22.27;;;2.60;99.90;;;;;;4877610;29;20045;-76
2022/03/02 04:52:53;;;;;;;33.78;20.75;;;2.50;99.90;;;;;;4876832;29;20055;-76
2022/03/02 04:55:19;;;;;;;32.72;21.17;;;2.50;99.90;;;;;;4861652;29;20055;-76
2022/03/02 04:57:46;;;;;;;34.28;22.25;;;2.40;99.90;;;;;;4861379;29;20430;-76
2022/03/02 05:00:19;;;;;;;33.22;20.70;;;2.40;99.90;;;;;;4875017;29;20037;-76
2022/03/02 05:02:45;;;;;;;34.60;22.17;;;2.40;99.90;;;;;;4871256;29;20377;-77
2022/03/02 05:05:13;;;;;;;34.05;21.00;;;2.40;99.90;;;;;;4876265;29;20101;-76
2022/03/02 05:07:40;;;;;;;32.88;20.92;;;2.30;99.90;;;;;;4876438;29;20049;-76
2022/03/02 05:10:07;;;;;;;32.13;19.20;;;2.30;99.90;;;;;;4876014;29;20147;-76
2022/03/02 05:12:33;;;;;;;24.38;15.95;;;2.30;99.90;;;;;;4862239;29;20076;-76
2022/03/02 05:14:59;;;;;;;34.85;21.40;;;2.20;99.90;;;;;;4848702;29;20076;-76
2022/03/02 05:17:25;;;;;;;30.83;18.80;;;2.20;99.90;;;;;;4872455;29;20053;-77
2022/03/02 05:19:51;;;;;;;28.60;18.58;;;2.10;99.90;;;;;;4873036;29;20057;-76
2022/03/02 05:22:17;;;;;;;;;;;2.10;99.90;;;;;;4871730;29;20136;-75
2022/03/02 05:24:43;;;;;;;33.53;19.90;;;2.10;99.90;;;;;;4877420;29;20014;-76
2022/03/02 05:27:09;;;;;;;28.35;17.42;;;2.10;99.90;;;;;;4862583;29;20820;-76
2022/03/02 05:29:36;;;;;;;35.55;21.05;;;2.00;99.90;;;;;;4876247;29;20174;-76
2022/03/02 05:32:03;;;;;;;34.20;22.00;;;2.10;99.90;;;;;;4859790;29;20049;-76
2022/03/02 05:34:28;;;;;;;35.75;21.20;;;2.00;99.90;;;;;;4845064;29;20103;-75
2022/03/02 05:36:54;;;;;;;30.40;19.15;;;2.00;99.90;;;;;;4828964;29;20489;-76
2022/03/02 05:39:20;;;;;;;29.38;18.58;;;2.00;99.90;;;;;;4847731;29;20168;-76
2022/03/02 05:41:46;;;;;;;26.70;15.95;;;1.90;99.90;;;;;;4856515;29;20780;-77
2022/03/02 05:44:12;;;;;;;24.45;14.80;;;1.90;99.90;;;;;;4857380;29;20037;-76
2022/03/02 05:46:40;;;;;;;22.48;14.60;;;1.90;99.90;;;;;;4829655;29;20056;-75
2022/03/02 05:49:08;;;;;;;28.10;17.55;;;1.80;99.90;;;;;;4851072;29;20054;-75
2022/03/02 05:51:35;;;;;;;27.90;17.27;;;1.80;99.90;;;;;;4853233;29;20055;-76
2022/03/02 05:54:03;;;;;;;33.17;20.27;;;1.80;99.90;;;;;;4859269;29;20104;-76
2022/03/02 05:56:32;;;;;;;26.40;17.00;;;1.80;99.90;;;;;;4859536;29;20044;-76
2022/03/02 05:58:59;;;;;;;27.55;17.30;;;1.70;99.90;;;;;;4859650;29;20052;-76
2022/03/02 06:01:24;;;;;;;37.30;22.55;;;1.70;99.90;;;;;;4859533;29;20115;-76
2022/03/02 06:03:51;;;;;;;29.65;18.67;;;1.70;99.90;;;;;;4856690;29;20533;-75
2022/03/02 06:06:16;;;;;;;29.13;16.60;;;1.70;99.90;;;;;;4852306;29;21461;-75
2022/03/02 06:08:43;;;;;;;36.58;23.63;;;1.60;99.90;;;;;;4844232;29;20045;-75
2022/03/02 06:11:09;;;;;;;41.92;25.83;;;1.60;99.90;;;;;;4859914;29;20041;-75
2022/03/02 06:13:35;;;;;;;44.25;25.45;;;1.70;99.90;;;;;;4843856;29;20089;-75
2022/03/02 06:16:02;;;;;;;35.25;22.50;;;1.70;99.90;;;;;;4858287;29;20072;-76
2022/03/02 06:18:29;;;;;;;35.33;21.42;;;1.70;99.90;;;;;;4842428;29;20050;-75
2022/03/02 06:21:01;;;;;;;43.83;25.48;;;1.70;99.90;;;;;;4857089;29;20185;-75
2022/03/02 06:23:31;;;;;;;37.70;22.75;;;1.70;99.90;;;;;;4839736;29;20041;-75
2022/03/02 06:25:57;;;;;;;37.67;22.92;;;1.70;99.90;;;;;;4853026;29;20049;-77
2022/03/02 06:28:24;;;;;;;27.83;17.20;;;1.70;99.90;;;;;;4857778;29;20051;-77
2022/03/02 06:30:51;;;;;;;28.55;17.67;;;1.70;99.90;;;;;;4861059;29;20060;-77
2022/03/02 06:33:19;;;;;;;29.02;18.02;;;1.70;99.90;;;;;;4869886;29;20116;-78
2022/03/02 06:35:46;;;;;;;32.50;19.63;;;1.70;99.90;;;;;;4859066;29;20418;-77
2022/03/02 06:38:12;;;;;;;34.47;21.25;;;1.70;99.90;;;;;;4857830;29;20037;-77
2022/03/02 06:40:39;;;;;;;28.92;17.95;;;1.70;99.90;;;;;;4869159;29;20049;-76
2022/03/02 06:43:08;;;;;;;32.70;19.63;;;1.60;99.90;;;;;;4871012;29;20056;-76
2022/03/02 06:45:59;;;;;;;32.72;20.50;;;1.60;99.90;;;;;;4868028;29;20461;-76
2022/03/02 06:48:32;;;;;;;32.03;19.08;;;1.60;99.90;;;;;;4874544;29;20053;-76
2022/03/02 06:51:00;;;;;;;23.98;15.38;;;1.60;99.90;;;;;;4851346;29;20042;-76
2022/03/02 06:53:35;;;;;;;23.83;13.85;;;1.60;99.90;;;;;;4869501;29;20051;-76
2022/03/02 06:56:04;;;;;;;30.75;19.05;;;1.60;99.90;;;;;;4868169;29;20057;-78
2022/03/02 06:59:00;;;;;;;40.60;24.38;;;1.60;99.90;;;;;;4868640;29;20057;-79
2022/03/02 07:01:32;;;;;;;36.35;21.48;;;1.70;99.90;;;;;;4883540;29;20375;-79
2022/03/02 07:04:01;;;;;;;38.25;23.23;;;1.80;99.90;;;;;;4854025;29;20052;-82
2022/03/02 07:06:28;;;;;;;31.42;19.83;;;1.80;99.90;;;;;;4866934;29;20037;-78
2022/03/02 07:08:55;;;;;;;43.42;24.70;;;1.90;99.90;;;;;;4852369;29;20109;-79
2022/03/02 07:11:22;;;;;;;37.28;23.08;;;1.90;99.90;;;;;;4842913;29;20453;-80
2022/03/02 07:13:49;;;;;;;36.17;21.40;;;2.00;99.90;;;;;;4858512;29;20508;-79
2022/03/02 07:16:17;;;;;;;28.23;18.33;;;2.00;99.90;;;;;;4874483;29;20041;-80
2022/03/02 07:18:43;;;;;;;29.88;18.70;;;2.10;99.90;;;;;;4858694;29;20117;-79
2022/03/02 07:21:13;;;;;;;22.85;14.80;;;2.10;99.90;;;;;;4871666;29;20034;-79
2022/03/02 07:23:54;;;;;;;27.95;17.65;;;2.20;99.90;;;;;;4855904;29;20176;-79
2022/03/02 07:26:21;;;;;;;29.95;17.60;;;2.20;99.90;;;;;;4870861;29;20101;-78
2022/03/02 07:28:48;;;;;;;31.98;19.15;;;2.30;99.90;;;;;;4878335;29;20136;-79
2022/03/02 07:31:14;;;;;;;31.20;19.42;;;2.40;99.90;;;;;;4856068;29;20363;-76
2022/03/02 07:33:42;;;;;;;36.05;22.08;;;2.40;99.90;;;;;;4857902;29;20543;-76
2022/03/02 07:36:11;;;;;;;35.53;21.83;;;2.50;99.90;;;;;;4858490;29;20135;-76
2022/03/02 07:38:39;;;;;;;38.95;22.65;;;2.60;99.90;;;;;;4873915;29;20478;-76
2022/03/02 07:41:12;;;;;;;36.70;21.83;;;2.60;99.90;;;;;;4852262;29;20073;-76
2022/03/02 07:43:39;;;;;;;35.50;21.10;;;2.70;99.90;;;;;;4870985;29;20053;-75
2022/03/02 07:46:06;;;;;;;35.42;22.02;;;2.80;99.90;;;;;;4872463;29;20045;-76
2022/03/02 07:48:32;;;;;;;38.78;24.40;;;2.90;99.90;;;;;;4871414;29;20124;-76
2022/03/02 07:51:02;;;;;;;43.33;26.35;;;3.00;99.90;;;;;;4873732;29;20370;-77
2022/03/02 07:53:33;;;;;;;40.95;25.75;;;3.00;99.90;;;;;;4855629;29;20049;-75
2022/03/02 07:56:00;;;;;;;45.08;27.40;;;3.20;99.90;;;;;;4872843;29;20053;-75
2022/03/02 07:58:27;;;;;;;41.30;26.77;;;3.30;99.90;;;;;;4872769;29;20135;-76
2022/03/02 08:00:54;;;;;;;44.75;28.15;;;3.40;99.90;;;;;;4873775;29;20041;-74
2022/03/02 08:03:27;;;;;;;36.28;24.13;;;3.50;99.90;;;;;;4873421;29;20120;-74
2022/03/02 08:05:57;;;;;;;41.53;26.52;;;3.70;99.90;;;;;;4871332;29;20037;-74
2022/03/02 08:08:22;;;;;;;41.65;25.25;;;3.70;99.90;;;;;;4873493;29;20414;-74
2022/03/02 08:10:48;;;;;;;42.72;27.17;;;3.80;99.90;;;;;;4857255;29;20036;-74
2022/03/02 08:13:14;;;;;;;38.67;25.95;;;4.00;99.90;;;;;;4872639;29;20480;-75
2022/03/02 08:15:40;;;;;;;42.65;27.25;;;4.10;99.90;;;;;;4858201;29;20049;-76
2022/03/02 08:18:07;;;;;;;38.75;26.00;;;4.20;99.90;;;;;;4875161;29;20427;-79
2022/03/02 08:20:35;;;;;;;44.20;27.80;;;4.30;99.90;;;;;;4843910;29;20041;-79
2022/03/02 08:23:02;;;;;;;39.53;26.20;;;4.30;99.90;;;;;;4857931;29;20485;-80
2022/03/02 08:25:30;;;;;;;42.90;26.58;;;4.30;99.90;;;;;;4877199;29;20049;-76
2022/03/02 08:27:59;;;;;;;39.47;26.50;;;4.30;99.90;;;;;;4846541;29;20148;-76
2022/03/02 08:30:30;;;;;;;42.40;25.95;;;4.30;99.90;;;;;;4883003;29;20060;-76
2022/03/02 08:32:57;;;;;;;39.90;24.98;;;4.40;99.90;;;;;;4876229;29;20428;-76
2022/03/02 08:35:24;;;;;;;36.80;24.58;;;4.40;99.90;;;;;;4876957;29;20041;-74
2022/03/02 08:37:49;;;;;;;38.05;24.30;;;4.40;99.90;;;;;;4873161;29;20046;-75
2022/03/02 08:40:15;;;;;;;38.53;24.92;;;4.40;99.90;;;;;;4873345;29;20044;-75
2022/03/02 08:42:41;;;;;;;37.55;26.05;;;4.50;99.90;;;;;;4874329;29;20077;-75
2022/03/02 08:45:08;;;;;;;40.33;25.20;;;4.50;99.90;;;;;;4858243;29;20077;-75
2022/03/02 08:47:34;;;;;;;40.38;25.33;;;4.50;99.90;;;;;;4873014;29;20091;-79
2022/03/02 08:50:00;;;;;;;38.80;24.48;;;4.60;99.90;;;;;;4874633;29;20139;-79
2022/03/02 08:52:28;;;;;;;40.33;24.77;;;4.60;99.90;;;;;;4873417;29;20052;-78
2022/03/02 08:54:56;;;;;;;39.45;26.10;;;4.70;99.90;;;;;;4873997;29;20465;-78
2022/03/02 08:57:23;;;;;;;40.63;24.67;;;4.70;99.90;;;;;;4873843;29;20113;-78
2022/03/02 08:59:55;;;;;;;39.72;26.40;;;4.70;99.90;;;;;;4860392;29;20497;-78
2022/03/02 09:02:24;;;;;;;38.50;24.35;;;4.80;99.90;;;;;;4874736;29;20124;-78
2022/03/02 09:04:50;;;;;;;39.50;25.30;;;4.80;99.90;;;;;;4857913;29;20227;-78
2022/03/02 09:07:20;;;;;;;37.30;24.10;;;4.90;99.90;;;;;;4873324;29;20400;-77
2022/03/02 09:09:46;;;;;;;42.25;24.92;;;4.90;99.90;;;;;;4873969;29;20113;-78
2022/03/02 09:12:15;;;;;;;37.28;25.55;;;5.00;99.90;;;;;;4857381;29;20048;-76
2022/03/02 09:14:41;;;;;;;37.13;24.42;;;5.00;99.90;;;;;;4876251;29;20053;-77
2022/03/02 09:17:07;;;;;;;42.38;25.65;;;5.10;99.90;;;;;;4872765;29;20044;-77
2022/03/02 09:19:33;;;;;;;39.65;24.63;;;5.20;99.90;;;;;;4873068;29;20045;-77
2022/03/02 09:21:58;;;;;;;35.65;24.17;;;5.20;99.90;;;;;;4859902;29;20445;-78
2022/03/02 09:24:30;;;;;;;39.40;25.38;;;5.20;99.90;;;;;;4857492;29;20557;-77
2022/03/02 09:26:58;;;;;;;37.55;23.67;;;5.30;99.90;;;;;;4871625;29;20048;-77
2022/03/02 09:29:29;;;;;;;37.47;23.73;;;5.30;99.90;;;;;;4860633;29;20045;-78
2022/03/02 09:31:57;;;;;;;38.65;24.20;;;5.50;99.90;;;;;;4866646;29;20136;-78
2022/03/02 09:34:30;;;;;;;34.35;21.23;;;5.50;99.90;;;;;;4863235;29;20068;-77
2022/03/02 09:36:57;;;;;;;37.47;24.73;;;5.60;99.90;;;;;;4872242;29;20784;-77
2022/03/02 09:39:24;;;;;;;36.13;24.50;;;5.60;99.90;;;;;;4860852;29;20460;-77
2022/03/02 09:42:08;;;;;;;38.58;23.65;;;5.70;99.90;;;;;;4845582;29;20099;-78
2022/03/02 09:44:45;;;;;;;33.67;22.40;;;5.70;99.90;;;;;;4873710;29;20420;-77
2022/03/02 09:47:20;;;;;;;34.90;23.80;;;5.80;99.90;;;;;;4873614;29;20112;-78
2022/03/02 09:49:56;;;;;;;37.80;23.75;;;5.80;99.90;;;;;;4890515;29;20049;-78
2022/03/02 09:52:23;;;;;;;40.38;25.13;;;5.90;99.90;;;;;;4873269;29;20049;-77
2022/03/02 09:54:55;;;;;;;35.38;22.52;;;6.00;99.90;;;;;;4862145;29;20187;-77
2022/03/02 09:57:22;;;;;;;38.38;24.70;;;6.10;99.90;;;;;;4864086;29;20588;-77
2022/03/02 09:59:57;;;;;;;37.50;24.45;;;6.10;99.90;;;;;;4875546;29;20451;-79
2022/03/02 10:02:29;;;;;;;41.80;24.15;;;6.20;99.90;;;;;;4861567;29;20056;-76
2022/03/02 10:05:02;;;;;;;36.15;23.75;;;6.30;99.90;;;;;;4858962;29;20314;-79
2022/03/02 10:07:30;;;;;;;33.28;22.30;;;6.30;99.90;;;;;;4876670;29;20267;-76
2022/03/02 10:10:23;;;;;;;36.60;23.95;;;6.40;99.90;;;;;;4844992;29;20053;-79
2022/03/02 10:12:51;;;;;;;33.90;23.02;;;6.50;99.90;;;;;;4874689;29;20060;-81
2022/03/02 10:15:18;;;;;;;36.80;22.40;;;6.50;99.90;;;;;;4861403;29;20041;-79
2022/03/02 10:17:48;;;;;;;35.50;20.67;;;6.50;99.90;;;;;;4873358;29;20050;-79
2022/03/02 10:20:19;;;;;;;30.20;20.05;;;6.60;99.90;;;;;;4867627;29;20046;-79
2022/03/02 10:22:48;;;;;;;31.35;21.17;;;6.70;99.90;;;;;;4869545;29;20105;-77
2022/03/02 10:25:16;;;;;;;32.25;21.00;;;6.80;99.90;;;;;;4879679;29;20044;-77
2022/03/02 10:28:05;;;;;;;32.55;20.73;;;6.80;99.90;;;;;;4858344;29;20093;-77
2022/03/02 10:30:40;;;;;;;32.08;21.42;;;6.90;99.90;;;;;;4869588;29;20069;-77
2022/03/02 10:33:29;;;;;;;35.10;23.40;;;7.00;99.90;;;;;;4875772;29;20132;-78
2022/03/02 10:36:03;;;;;;;35.40;23.15;;;7.10;99.90;;;;;;4870941;29;20100;-78
2022/03/02 10:39:01;;;;;;;35.97;23.83;;;7.20;99.90;;;;;;4864221;29;20046;-78
2022/03/02 10:41:29;;;;;;;;;;;7.20;99.90;;;;;;4873282;29;20041;-78
2022/03/02 10:44:14;;;;;;;33.00;22.23;;;7.30;99.90;;;;;;4874453;29;19927;-78
2022/03/02 10:46:45;;;;;;;32.85;21.88;;;7.50;99.90;;;;;;4868376;29;20602;-78
2022/03/02 10:49:30;;;;;;;35.13;22.48;;;7.60;99.90;;;;;;4854154;29;20057;-78
2022/03/02 10:52:00;;;;;;;33.83;23.17;;;7.70;99.90;;;;;;4871046;29;20056;-79
2022/03/02 10:54:27;;;;;;;31.73;20.63;;;7.80;99.90;;;;;;4860049;29;20044;-78
2022/03/02 10:56:53;;;;;;;30.65;20.00;;;8.00;99.90;;;;;;4874550;29;20404;-78
2022/03/02 10:59:24;;;;;;;;;;;8.30;99.90;;;;;;4858415;29;20185;-78
2022/03/02 11:01:51;;;;;;;35.00;22.00;;;8.50;99.90;;;;;;4870870;29;19930;-77
2022/03/02 11:04:21;;;;;;;31.35;20.65;;;8.90;99.90;;;;;;4859285;29;20041;-77
2022/03/02 11:06:48;;;;;;;27.45;18.75;;;9.00;99.90;;;;;;4859557;29;20150;-77
2022/03/02 11:09:16;;;;;;;25.95;18.05;;;9.20;99.90;;;;;;4874772;29;20061;-77
2022/03/02 11:11:43;;;;;;;29.77;19.80;;;9.40;99.90;;;;;;4871685;29;20057;-77
2022/03/02 11:14:09;;;;;;;29.55;20.35;;;9.50;99.90;;;;;;4828766;29;20067;-78
2022/03/02 11:16:35;;;;;;;;;;;9.60;99.90;;;;;;4860231;29;20124;-77
2022/03/02 11:19:13;;;;;;;27.77;18.98;;;9.80;99.90;;;;;;4872836;29;19924;-77
2022/03/02 11:21:41;;;;;;;28.42;18.65;;;9.90;99.90;;;;;;4872332;29;20447;-78
2022/03/02 11:24:09;;;;;;;27.08;18.23;;;10.00;99.90;;;;;;4857744;29;20040;-77
2022/03/02 11:26:40;;;;;;;26.70;17.90;;;10.10;99.90;;;;;;4859838;29;20417;-77
2022/03/02 11:29:11;;;;;;;25.20;17.58;;;10.30;99.90;;;;;;4873447;29;20049;-73
2022/03/02 11:31:44;;;;;;;23.83;17.00;;;10.50;99.80;;;;;;4873818;29;20161;-76
2022/03/02 11:34:10;;;;;;;20.33;14.75;;;10.60;97.10;;;;;;4862869;29;20059;-76
2022/03/02 11:36:38;;;;;;;26.95;17.80;;;10.90;98.70;;;;;;4857625;29;20401;-76
2022/03/02 11:39:06;;;;;;;27.60;19.02;;;11.30;97.10;;;;;;4873959;29;20494;-76
2022/03/02 11:41:34;;;;;;;22.75;16.70;;;11.20;96.20;;;;;;4877582;29;20072;-75
2022/03/02 11:44:23;;;;;;;24.83;17.52;;;11.30;96.70;;;;;;4873854;29;20062;-75
2022/03/02 11:46:49;;;;;;;27.77;18.45;;;11.40;96.60;;;;;;4871250;29;20056;-76
2022/03/02 11:49:15;;;;;;;26.27;16.98;;;11.40;95.60;;;;;;4874212;29;20044;-76
2022/03/02 11:51:40;;;;;;;23.65;17.10;;;11.40;96.00;;;;;;4863275;29;20131;-75
2022/03/02 11:54:09;;;;;;;23.15;16.63;;;11.40;95.40;;;;;;4869031;29;20104;-75
2022/03/02 11:56:35;;;;;;;21.92;15.25;;;11.50;95.90;;;;;;4861917;29;20417;-76
2022/03/02 11:59:07;;;;;;;23.63;15.45;;;11.70;96.30;;;;;;4874539;29;20127;-76
2022/03/02 12:01:47;;;;;;;23.05;15.45;;;11.70;94.90;;;;;;4877927;29;20086;-76
2022/03/02 12:04:14;;;;;;;22.42;15.85;;;11.80;94.40;;;;;;4874624;29;20516;-76
2022/03/02 12:06:50;;;;;;;20.38;14.32;;;11.80;94.00;;;;;;4863325;29;20395;-76
2022/03/02 12:09:27;;;;;;;21.48;15.20;;;11.80;93.60;;;;;;4875433;29;20132;-76
2022/03/02 12:12:10;;;;;;;22.33;15.18;;;11.90;93.70;;;;;;4880448;29;20044;-76
2022/03/02 12:15:05;;;;;;;23.83;16.15;;;12.10;94.00;;;;;;4858015;29;20143;-76
2022/03/02 12:17:33;;;;;;;22.98;15.27;;;12.00;92.90;;;;;;4864791;29;20064;-77
2022/03/02 12:20:05;;;;;;;21.77;14.63;;;11.70;92.60;;;;;;4874847;29;20049;-75
2022/03/02 12:22:32;;;;;;;21.55;15.25;;;11.60;93.00;;;;;;4876642;29;20045;-75
2022/03/02 12:24:59;;;;;;;21.10;14.98;;;11.50;92.80;;;;;;4847269;29;20132;-76
2022/03/02 12:27:25;;;;;;;21.95;14.93;;;11.60;92.10;;;;;;4875503;29;20526;-75
2022/03/02 12:29:54;;;;;;;25.60;16.58;;;11.60;92.70;;;;;;4877589;29;20280;-75
2022/03/02 12:32:21;;;;;;;22.65;15.80;;;11.50;92.30;;;;;;4875465;29;20576;-75
2022/03/02 12:34:48;;;;;;;;;;;11.50;92.70;;;;;;4884453;29;20434;-75
2022/03/02 12:37:15;;;;;;;21.30;15.40;;;11.50;92.60;;;;;;4861177;29;19927;-75
2022/03/02 12:39:42;;;;;;;17.15;13.30;;;11.70;93.80;;;;;;4884618;29;20417;-75
2022/03/02 12:42:08;;;;;;;17.40;12.73;;;12.00;92.80;;;;;;4876981;29;20040;-75
2022/03/02 12:44:39;;;;;;;19.10;13.18;;;12.10;93.50;;;;;;4876293;29;20081;-75